createdAt,value
2016-09-05T00:00:07.388Z,995.3
2016-09-05T00:01:19.650Z,995.31
2016-09-05T00:02:31.916Z,995.32
2016-09-05T00:03:44.181Z,995.37
2016-09-05T00:04:56.448Z,995.45
2016-09-05T00:06:08.006Z,995.53
2016-09-05T00:07:20.254Z,995.37
2016-09-05T00:08:31.819Z,995.44
2016-09-05T00:09:43.376Z,995.4
2016-09-05T00:10:55.662Z,995.47
2016-09-05T00:12:07.234Z,995.42
2016-09-05T00:13:18.791Z,995.43
2016-09-05T00:14:30.349Z,995.35
2016-09-05T00:15:42.598Z,995.42
2016-09-05T00:16:53.457Z,995.46
2016-09-05T00:18:05.014Z,995.38
2016-09-05T00:19:17.274Z,995.38
2016-09-05T00:20:28.840Z,995.31
2016-09-05T00:21:40.398Z,995.33
2016-09-05T00:22:51.276Z,995.34
2016-09-05T00:24:03.546Z,995.35
2016-09-05T00:25:15.798Z,995.33
2016-09-05T00:26:27.360Z,995.25
2016-09-05T00:27:38.909Z,995.23
2016-09-05T00:28:51.164Z,995.15
2016-09-05T00:30:03.416Z,995.2
2016-09-05T00:31:13.565Z,995.16
2016-09-05T00:32:25.824Z,995.11
2016-09-05T00:33:37.371Z,995.13
2016-09-05T00:34:48.918Z,995.17
2016-09-05T00:36:01.201Z,995.16
2016-09-05T00:37:13.486Z,995.12
2016-09-05T00:38:25.747Z,995.2
2016-09-05T00:39:37.300Z,995.2
2016-09-05T00:40:48.152Z,995.18
2016-09-05T00:42:00.403Z,995.18
2016-09-05T00:43:12.670Z,995.13
2016-09-05T00:44:24.251Z,995.12
2016-09-05T00:45:36.521Z,995.15
2016-09-05T00:46:48.777Z,995.07
2016-09-05T00:48:01.062Z,995.07
2016-09-05T00:49:12.609Z,995.06
2016-09-05T00:50:22.766Z,995.02
2016-09-05T00:51:35.021Z,995.05
2016-09-05T00:52:47.295Z,995.04
2016-09-05T00:53:59.561Z,995.11
2016-09-05T00:55:11.123Z,995.06
2016-09-05T00:56:23.376Z,995.04
2016-09-05T00:57:34.941Z,995.09
2016-09-05T00:58:47.205Z,995.07
2016-09-05T00:59:59.473Z,995.12
2016-09-05T01:01:11.737Z,995.13
2016-09-05T01:02:23.304Z,995.14
2016-09-05T01:03:35.575Z,995.19
2016-09-05T01:04:47.847Z,995.15
2016-09-05T01:06:00.115Z,995.17
2016-09-05T01:07:11.674Z,995.18
2016-09-05T01:08:23.943Z,995.18
2016-09-05T01:09:36.209Z,995.18
2016-09-05T01:10:48.472Z,995.16
2016-09-05T01:12:00.034Z,995.15
2016-09-05T01:13:12.321Z,995.22
2016-09-05T01:14:24.587Z,995.18
2016-09-05T01:15:36.838Z,995.16
2016-09-05T01:16:49.085Z,995.17
2016-09-05T01:18:00.637Z,995.23
2016-09-05T01:19:12.915Z,995.25
2016-09-05T01:20:25.176Z,995.26
2016-09-05T01:21:36.735Z,995.19
2016-09-05T01:22:48.990Z,995.13
2016-09-05T01:24:00.561Z,995.21
2016-09-05T01:25:13.058Z,995.17
2016-09-05T01:26:24.615Z,995.12
2016-09-05T01:27:36.161Z,995.12
2016-09-05T01:28:47.022Z,995.04
2016-09-05T01:29:58.574Z,995.04
2016-09-05T01:31:10.127Z,995.07
2016-09-05T01:32:21.006Z,995.06
2016-09-05T01:33:33.265Z,995.11
2016-09-05T01:34:44.133Z,995.18
2016-09-05T01:35:55.690Z,995.18
2016-09-05T01:37:07.255Z,995.16
2016-09-05T01:38:19.518Z,995.13
2016-09-05T01:39:31.778Z,995.14
2016-09-05T01:40:44.045Z,995.23
2016-09-05T01:41:56.319Z,995.17
2016-09-05T01:43:08.573Z,995.19
2016-09-05T01:44:20.842Z,995.16
2016-09-05T01:45:33.107Z,995.2
2016-09-05T01:46:44.679Z,995.16
2016-09-05T01:47:56.957Z,995.1
2016-09-05T01:49:09.221Z,995.17
2016-09-05T01:50:21.484Z,995.13
2016-09-05T01:51:33.772Z,995.05
2016-09-05T01:52:45.340Z,995.13
2016-09-05T01:53:57.609Z,995.07
2016-09-05T01:55:09.163Z,995.12
2016-09-05T01:56:21.414Z,995.12
2016-09-05T01:57:33.689Z,995.13
2016-09-05T01:58:45.245Z,995.13
2016-09-05T01:59:57.499Z,995.18
2016-09-05T02:01:09.751Z,995.16
2016-09-05T02:02:22.027Z,995.16
2016-09-05T02:03:34.286Z,995.11
2016-09-05T02:04:46.535Z,995.09
2016-09-05T02:05:58.793Z,995.12
2016-09-05T02:07:10.350Z,995.12
2016-09-05T02:08:22.606Z,995.06
2016-09-05T02:09:34.860Z,995.1
2016-09-05T02:10:46.429Z,995.16
2016-09-05T02:11:58.001Z,995.18
2016-09-05T02:13:10.267Z,995.07
2016-09-05T02:14:21.120Z,995.13
2016-09-05T02:15:33.371Z,995.11
2016-09-05T02:16:44.948Z,995.08
2016-09-05T02:17:57.219Z,995.11
2016-09-05T02:19:09.470Z,995.08
2016-09-05T02:20:21.743Z,995.16
2016-09-05T02:21:34.015Z,995.04
2016-09-05T02:22:46.258Z,995.05
2016-09-05T02:23:57.830Z,995.08
2016-09-05T02:25:10.081Z,995.07
2016-09-05T02:26:22.342Z,995.06
2016-09-05T02:27:33.906Z,995.05
2016-09-05T02:28:46.171Z,995.07
2016-09-05T02:29:58.425Z,995.02
2016-09-05T02:31:10.685Z,995.11
2016-09-05T02:32:22.239Z,995.09
2016-09-05T02:33:34.496Z,995.06
2016-09-05T02:34:46.045Z,995.07
2016-09-05T02:35:58.302Z,995.06
2016-09-05T02:37:09.189Z,995.06
2016-09-05T02:38:20.751Z,995.02
2016-09-05T02:39:32.306Z,995
2016-09-05T02:40:44.555Z,995.04
2016-09-05T02:41:55.407Z,994.95
2016-09-05T02:43:06.260Z,994.98
2016-09-05T02:44:18.540Z,994.91
2016-09-05T02:45:30.100Z,994.99
2016-09-05T02:46:42.362Z,994.95
2016-09-05T02:47:54.635Z,994.99
2016-09-05T02:49:06.191Z,995
2016-09-05T02:50:18.453Z,994.89
2016-09-05T02:51:29.309Z,994.88
2016-09-05T02:52:40.865Z,994.94
2016-09-05T02:53:53.132Z,994.94
2016-09-05T02:55:05.420Z,994.91
2016-09-05T02:56:17.682Z,994.88
2016-09-05T02:57:29.944Z,994.9
2016-09-05T02:58:42.196Z,994.79
2016-09-05T02:59:52.343Z,994.85
2016-09-05T03:32:00.475Z,994.79
2016-09-05T03:33:12.726Z,994.87
2016-09-05T03:34:24.264Z,994.84
2016-09-05T03:35:36.535Z,994.87
2016-09-05T03:36:48.817Z,994.9
2016-09-05T03:37:59.674Z,994.89
2016-09-05T03:39:11.931Z,994.85
2016-09-05T03:40:23.485Z,994.88
2016-09-05T03:41:35.070Z,994.86
2016-09-05T03:42:47.345Z,994.95
2016-09-05T03:43:58.904Z,994.97
2016-09-05T03:45:11.162Z,995.03
2016-09-05T03:46:23.436Z,995.02
2016-09-05T03:47:35.705Z,994.99
2016-09-05T03:48:47.960Z,994.93
2016-09-05T03:50:00.232Z,994.97
2016-09-05T03:51:12.484Z,995.05
2016-09-05T03:52:24.050Z,995.12
2016-09-05T03:53:36.316Z,995.09
2016-09-05T03:54:48.573Z,995.08
2016-09-05T03:56:00.821Z,995.09
2016-09-05T03:57:12.388Z,995.12
2016-09-05T03:58:23.243Z,995.1
2016-09-05T03:59:35.486Z,995.12
2016-09-05T04:00:47.749Z,995.08
2016-09-05T04:01:59.338Z,995.11
2016-09-05T04:03:10.186Z,995.16
2016-09-05T04:04:22.446Z,995.2
2016-09-05T04:05:33.996Z,995.19
2016-09-05T04:06:46.265Z,995.27
2016-09-05T04:07:57.819Z,995.3
2016-09-05T04:09:10.080Z,995.3
2016-09-05T04:10:21.641Z,995.33
2016-09-05T04:11:33.899Z,995.37
2016-09-05T04:12:46.168Z,995.4
2016-09-05T04:13:58.426Z,995.41
2016-09-05T04:15:09.984Z,995.45
2016-09-05T04:16:22.251Z,995.48
2016-09-05T04:17:34.514Z,995.46
2016-09-05T04:18:46.784Z,995.54
2016-09-05T04:19:59.048Z,995.57
2016-09-05T04:21:11.298Z,995.53
2016-09-05T04:22:22.859Z,995.54
2016-09-05T04:23:35.128Z,995.49
2016-09-05T04:24:46.697Z,995.48
2016-09-05T04:25:58.945Z,995.38
2016-09-05T04:27:11.218Z,995.48
2016-09-05T04:28:23.488Z,995.5
2016-09-05T04:29:35.756Z,995.44
2016-09-05T04:30:48.002Z,995.59
2016-09-05T04:32:00.274Z,995.56
2016-09-05T04:33:12.555Z,995.5
2016-09-05T04:34:24.807Z,995.53
2016-09-05T04:35:36.403Z,995.54
2016-09-05T04:36:48.664Z,995.56
2016-09-05T04:38:00.219Z,995.61
2016-09-05T04:39:12.494Z,995.64
2016-09-05T04:40:24.762Z,995.66
2016-09-05T04:41:36.327Z,995.66
2016-09-05T04:42:48.583Z,995.68
2016-09-05T04:44:00.826Z,995.69
2016-09-05T04:45:13.093Z,995.69
2016-09-05T04:46:25.333Z,995.74
2016-09-05T04:47:36.897Z,995.75
2016-09-05T04:48:47.769Z,995.78
2016-09-05T04:49:58.620Z,995.79
2016-09-05T04:51:10.170Z,995.78
2016-09-05T04:52:22.444Z,995.79
2016-09-05T04:53:34.725Z,995.8
2016-09-05T04:54:46.991Z,995.82
2016-09-05T04:55:59.259Z,995.81
2016-09-05T04:57:10.825Z,995.78
2016-09-05T04:58:23.092Z,995.8
2016-09-05T04:59:34.658Z,995.8
2016-09-05T05:00:46.220Z,995.79
2016-09-05T05:01:58.488Z,995.79
2016-09-05T05:03:10.739Z,995.75
2016-09-05T05:04:22.302Z,995.85
2016-09-05T05:05:34.569Z,995.75
2016-09-05T05:06:46.842Z,995.74
2016-09-05T05:07:58.401Z,995.76
2016-09-05T05:09:09.953Z,995.81
2016-09-05T05:10:21.510Z,995.84
2016-09-05T05:11:33.761Z,995.85
2016-09-05T05:12:45.310Z,995.86
2016-09-05T05:13:57.565Z,995.85
2016-09-05T05:15:09.839Z,995.87
2016-09-05T05:16:22.118Z,995.91
2016-09-05T05:17:34.383Z,995.95
2016-09-05T05:18:46.659Z,995.92
2016-09-05T05:19:58.918Z,995.94
2016-09-05T05:21:11.183Z,995.96
2016-09-05T05:22:23.438Z,995.93
2016-09-05T05:23:35.710Z,995.94
2016-09-05T05:24:47.282Z,995.96
2016-09-05T05:25:59.548Z,995.97
2016-09-05T05:27:11.801Z,996.02
2016-09-05T05:28:23.362Z,996.03
2016-09-05T05:29:34.928Z,996
2016-09-05T05:30:46.489Z,995.98
2016-09-05T05:31:58.048Z,996.03
2016-09-05T05:33:10.328Z,996.03
2016-09-05T05:34:22.598Z,996.11
2016-09-05T05:35:34.858Z,995.97
2016-09-05T05:36:46.417Z,995.93
2016-09-05T05:37:57.981Z,995.9
2016-09-05T05:39:10.249Z,995.87
2016-09-05T05:40:21.109Z,995.93
2016-09-05T05:41:32.690Z,995.95
2016-09-05T05:42:44.958Z,995.88
2016-09-05T05:43:55.811Z,995.86
2016-09-05T05:45:08.067Z,995.86
2016-09-05T05:46:20.343Z,995.81
2016-09-05T05:47:31.955Z,995.82
2016-09-05T05:48:44.212Z,995.79
2016-09-05T05:49:56.488Z,995.84
2016-09-05T05:51:08.740Z,995.86
2016-09-05T05:52:21.029Z,995.87
2016-09-05T05:53:32.569Z,995.89
2016-09-05T05:54:44.126Z,995.85
2016-09-05T05:55:56.383Z,995.85
2016-09-05T05:57:07.929Z,995.85
2016-09-05T05:58:19.491Z,995.81
2016-09-05T05:59:31.739Z,995.88
2016-09-05T06:00:43.290Z,995.89
2016-09-05T06:01:54.874Z,995.94
2016-09-05T06:03:07.144Z,995.94
2016-09-05T06:04:19.399Z,995.99
2016-09-05T06:05:30.971Z,995.94
2016-09-05T06:06:43.243Z,995.92
2016-09-05T06:07:55.495Z,995.85
2016-09-05T06:09:07.743Z,995.82
2016-09-05T06:10:19.308Z,995.87
2016-09-05T06:11:30.860Z,995.83
2016-09-05T06:12:42.427Z,995.86
2016-09-05T06:13:54.709Z,995.95
2016-09-05T06:15:06.971Z,995.88
2016-09-05T06:16:19.238Z,995.85
2016-09-05T06:17:31.514Z,995.95
2016-09-05T06:18:43.076Z,995.94
2016-09-05T06:19:54.633Z,995.93
2016-09-05T06:21:05.498Z,996.02
2016-09-05T06:22:17.064Z,995.95
2016-09-05T06:23:28.618Z,995.93
2016-09-05T06:24:40.893Z,995.95
2016-09-05T06:25:52.477Z,995.98
2016-09-05T06:27:04.042Z,995.94
2016-09-05T06:28:14.902Z,995.99
2016-09-05T06:29:25.756Z,995.98
2016-09-05T06:30:37.321Z,995.95
2016-09-05T06:31:48.195Z,995.95
2016-09-05T06:32:59.758Z,996.01
2016-09-05T06:34:10.618Z,996
2016-09-05T06:35:22.174Z,996.01
2016-09-05T06:36:34.432Z,996.07
2016-09-05T06:37:45.278Z,995.99
2016-09-05T06:38:56.841Z,996.05
2016-09-05T06:40:08.400Z,996.04
2016-09-05T06:41:20.650Z,996.05
2016-09-05T06:42:32.921Z,995.96
2016-09-05T06:43:43.779Z,995.93
2016-09-05T06:44:56.042Z,995.98
2016-09-05T06:46:08.292Z,995.98
2016-09-05T06:47:20.566Z,996.03
2016-09-05T06:48:32.828Z,996.03
2016-09-05T06:49:43.680Z,996.1
2016-09-05T06:50:54.532Z,996.11
2016-09-05T06:52:06.103Z,996.08
2016-09-05T06:53:18.367Z,996.13
2016-09-05T06:54:30.627Z,996.09
2016-09-05T06:55:40.774Z,996.06
2016-09-05T06:56:52.351Z,996.11
2016-09-05T06:58:03.919Z,996.12
2016-09-05T06:59:16.200Z,996.16
2016-09-05T07:00:28.452Z,996.15
2016-09-05T07:01:40.720Z,996.19
2016-09-05T07:02:52.976Z,996.17
2016-09-05T07:04:04.533Z,996.14
2016-09-05T07:05:16.799Z,996.18
2016-09-05T07:06:29.070Z,996.19
2016-09-05T07:07:40.623Z,996.16
2016-09-05T07:08:52.888Z,996.2
2016-09-05T07:10:05.157Z,996.21
2016-09-05T07:11:17.434Z,996.17
2016-09-05T07:12:29.004Z,996.22
2016-09-05T07:13:41.256Z,996.2
2016-09-05T07:14:53.510Z,996.28
2016-09-05T07:16:05.779Z,996.19
2016-09-05T07:17:18.051Z,996.17
2016-09-05T07:18:29.613Z,996.18
2016-09-05T07:19:41.861Z,996.23
2016-09-05T07:20:54.126Z,996.24
2016-09-05T07:22:06.389Z,996.21
2016-09-05T07:23:18.641Z,996.3
2016-09-05T07:24:30.197Z,996.26
2016-09-05T07:25:42.456Z,996.33
2016-09-05T07:26:54.010Z,996.39
2016-09-05T07:28:06.306Z,996.27
2016-09-05T07:29:18.574Z,996.31
2016-09-05T07:30:30.853Z,996.33
2016-09-05T07:31:43.125Z,996.28
2016-09-05T07:32:53.990Z,996.33
2016-09-05T07:34:04.848Z,996.3
2016-09-05T07:35:17.109Z,996.31
2016-09-05T07:36:27.960Z,996.32
2016-09-05T07:37:40.226Z,996.33
2016-09-05T07:38:52.509Z,996.31
2016-09-05T07:40:04.777Z,996.35
2016-09-05T07:41:17.033Z,996.37
2016-09-05T07:42:29.295Z,996.4
2016-09-05T07:43:41.562Z,996.36
2016-09-05T07:44:53.828Z,996.4
2016-09-05T07:46:06.090Z,996.3
2016-09-05T07:47:17.649Z,996.33
2016-09-05T07:48:29.235Z,996.34
2016-09-05T07:49:41.493Z,996.26
2016-09-05T07:50:53.054Z,996.36
2016-09-05T07:52:05.343Z,996.38
2016-09-05T07:53:17.604Z,996.3
2016-09-05T07:54:29.178Z,996.35
2016-09-05T07:55:40.739Z,996.31
2016-09-05T07:56:53.006Z,996.34
2016-09-05T07:58:04.558Z,996.34
2016-09-05T07:59:16.107Z,996.27
2016-09-05T08:00:28.357Z,996.32
2016-09-05T08:01:39.934Z,996.35
2016-09-05T08:02:51.491Z,996.28
2016-09-05T08:04:03.752Z,996.32
2016-09-05T08:05:15.305Z,996.43
2016-09-05T08:06:26.872Z,996.34
2016-09-05T08:07:39.137Z,996.42
2016-09-05T08:08:51.398Z,996.4
2016-09-05T08:10:02.261Z,996.54
2016-09-05T08:11:13.833Z,996.42
2016-09-05T08:12:26.109Z,996.41
2016-09-05T08:13:38.385Z,996.4
2016-09-05T08:14:49.939Z,996.41
2016-09-05T08:16:02.213Z,996.39
2016-09-05T08:17:14.494Z,996.48
2016-09-05T08:18:26.757Z,996.36
2016-09-05T08:19:38.333Z,996.44
2016-09-05T08:20:49.882Z,996.44
2016-09-05T08:22:02.177Z,996.45
2016-09-05T08:23:14.439Z,996.44
2016-09-05T08:24:25.996Z,996.41
2016-09-05T08:25:36.859Z,996.44
2016-09-05T08:26:48.415Z,996.46
2016-09-05T08:27:59.977Z,996.53
2016-09-05T08:29:11.535Z,996.56
2016-09-05T08:30:23.811Z,996.59
2016-09-05T08:31:36.071Z,996.61
2016-09-05T08:32:48.354Z,996.45
2016-09-05T08:33:59.935Z,996.58
2016-09-05T08:35:12.199Z,996.6
2016-09-05T08:36:24.779Z,996.53
2016-09-05T08:37:36.335Z,996.55
2016-09-05T08:38:47.893Z,996.58
2016-09-05T08:39:59.459Z,996.52
2016-09-05T08:41:11.017Z,996.58
2016-09-05T08:42:23.282Z,996.55
2016-09-05T08:43:35.544Z,996.5
2016-09-05T08:44:47.101Z,996.57
2016-09-05T08:45:59.368Z,996.56
2016-09-05T08:47:10.231Z,996.71
2016-09-05T08:48:21.792Z,996.55
2016-09-05T08:49:34.043Z,996.54
2016-09-05T08:50:45.614Z,996.68
2016-09-05T08:51:56.479Z,996.64
2016-09-05T08:53:08.734Z,996.49
2016-09-05T08:54:21.007Z,996.59
2016-09-05T08:55:33.263Z,996.59
2016-09-05T08:56:44.835Z,996.64
2016-09-05T08:57:57.111Z,996.56
2016-09-05T08:59:09.398Z,996.64
2016-09-05T09:00:21.660Z,996.63
2016-09-05T09:01:33.947Z,996.62
2016-09-05T09:02:45.526Z,996.63
2016-09-05T09:03:57.094Z,996.66
2016-09-05T09:05:07.956Z,996.54
2016-09-05T09:06:20.218Z,996.6
2016-09-05T09:07:31.790Z,996.63
2016-09-05T09:08:43.358Z,996.57
2016-09-05T09:09:55.643Z,996.61
2016-09-05T09:11:07.914Z,996.65
2016-09-05T09:12:18.757Z,996.63
2016-09-05T09:13:29.626Z,996.71
2016-09-05T09:14:41.891Z,996.66
2016-09-05T09:15:53.470Z,996.68
2016-09-05T09:17:05.060Z,996.66
2016-09-05T09:18:17.345Z,996.69
2016-09-05T09:19:29.622Z,996.59
2016-09-05T09:20:41.889Z,996.64
2016-09-05T09:21:54.155Z,996.61
2016-09-05T09:23:04.298Z,996.7
2016-09-05T09:24:16.581Z,996.71
2016-09-05T09:25:28.856Z,996.63
2016-09-05T09:26:41.128Z,996.61
2016-09-05T09:27:51.983Z,996.67
2016-09-05T09:29:03.551Z,996.69
2016-09-05T09:30:15.113Z,996.7
2016-09-05T09:31:27.403Z,996.67
2016-09-05T09:32:38.963Z,996.67
2016-09-05T09:33:50.548Z,996.84
2016-09-05T09:35:02.841Z,996.75
2016-09-05T09:36:15.108Z,996.87
2016-09-05T09:37:27.382Z,996.75
2016-09-05T09:38:39.652Z,996.72
2016-09-05T09:39:51.219Z,996.7
2016-09-05T09:41:03.517Z,996.71
2016-09-05T09:42:14.357Z,996.68
2016-09-05T09:43:26.620Z,996.62
2016-09-05T09:44:38.899Z,996.73
2016-09-05T09:45:51.177Z,996.62
2016-09-05T09:47:02.730Z,996.68
2016-09-05T09:48:14.998Z,996.69
2016-09-05T09:49:26.563Z,996.76
2016-09-05T09:50:38.115Z,996.71
2016-09-05T09:51:50.385Z,996.81
2016-09-05T09:53:01.253Z,996.72
2016-09-05T09:54:12.820Z,996.65
2016-09-05T09:55:24.400Z,996.61
2016-09-05T09:56:35.962Z,996.59
2016-09-05T09:57:48.221Z,996.59
2016-09-05T09:58:59.797Z,996.59
2016-09-05T10:00:12.073Z,996.62
2016-09-05T10:01:24.347Z,996.58
2016-09-05T10:02:36.603Z,996.56
2016-09-05T10:03:49.120Z,996.6
2016-09-05T10:04:59.981Z,996.57
2016-09-05T10:06:11.583Z,996.51
2016-09-05T10:07:22.455Z,996.52
2016-09-05T10:08:34.712Z,996.51
2016-09-05T10:09:46.273Z,996.52
2016-09-05T10:10:58.555Z,996.43
2016-09-05T10:12:10.854Z,996.54
2016-09-05T10:13:23.117Z,996.53
2016-09-05T10:14:35.385Z,996.58
2016-09-05T10:15:46.962Z,996.5
2016-09-05T10:16:58.539Z,996.51
2016-09-05T10:18:10.095Z,996.52
2016-09-05T10:19:22.358Z,996.56
2016-09-05T10:20:33.918Z,996.6
2016-09-05T10:21:46.195Z,996.6
2016-09-05T10:22:58.456Z,996.51
2016-09-05T10:24:10.014Z,996.52
2016-09-05T10:25:22.297Z,996.52
2016-09-05T10:26:34.575Z,996.46
2016-09-05T10:27:45.439Z,996.45
2016-09-05T10:28:57.711Z,996.59
2016-09-05T10:30:09.970Z,996.58
2016-09-05T10:31:22.255Z,996.5
2016-09-05T10:32:34.530Z,996.51
2016-09-05T10:33:46.802Z,996.57
2016-09-05T10:34:58.371Z,996.55
2016-09-05T10:36:10.649Z,996.68
2016-09-05T10:37:22.929Z,996.63
2016-09-05T10:38:35.197Z,996.56
2016-09-05T10:39:46.778Z,996.64
2016-09-05T10:40:59.047Z,996.59
2016-09-05T10:42:11.315Z,996.54
2016-09-05T10:43:23.583Z,996.59
2016-09-05T10:44:35.169Z,996.55
2016-09-05T10:45:47.443Z,996.53
2016-09-05T10:46:58.341Z,996.52
2016-09-05T10:48:09.905Z,996.45
2016-09-05T10:49:22.158Z,996.5
2016-09-05T10:50:34.425Z,996.39
2016-09-05T10:51:46.709Z,996.47
2016-09-05T10:52:58.278Z,996.39
2016-09-05T10:54:10.549Z,996.32
2016-09-05T10:55:22.108Z,996.35
2016-09-05T10:56:34.388Z,996.36
2016-09-05T10:57:46.650Z,996.32
2016-09-05T10:58:58.913Z,996.19
2016-09-05T11:00:11.165Z,996.26
2016-09-05T11:01:23.439Z,996.25
2016-09-05T11:02:35.010Z,996.23
2016-09-05T11:03:47.280Z,996.26
2016-09-05T11:04:59.540Z,996.2
2016-09-05T11:06:11.141Z,996.17
2016-09-05T11:07:23.419Z,996.08
2016-09-05T11:08:35.675Z,996.15
2016-09-05T11:09:47.943Z,996.15
2016-09-05T11:10:58.810Z,996.19
2016-09-05T11:12:10.376Z,996.28
2016-09-05T11:13:21.951Z,996.28
2016-09-05T11:14:33.523Z,996.65
2016-09-05T11:15:45.773Z,996.85
2016-09-05T11:16:58.049Z,996.89
2016-09-05T11:18:10.311Z,996.87
2016-09-05T11:19:22.591Z,996.99
2016-09-05T11:20:34.858Z,996.95
2016-09-05T11:21:47.134Z,996.99
2016-09-05T11:22:59.412Z,996.93
2016-09-05T11:24:11.692Z,996.94
2016-09-05T11:25:23.967Z,996.93
2016-09-05T11:26:35.552Z,996.87
2016-09-05T11:27:47.830Z,996.87
2016-09-05T11:29:00.106Z,996.82
2016-09-05T11:30:11.666Z,996.86
2016-09-05T11:31:23.944Z,996.78
2016-09-05T11:32:36.211Z,996.84
2016-09-05T11:33:47.759Z,996.83
2016-09-05T11:35:00.030Z,996.85
2016-09-05T11:36:11.591Z,996.9
2016-09-05T11:37:21.752Z,996.87
2016-09-05T11:38:32.621Z,996.84
2016-09-05T11:39:44.922Z,996.82
2016-09-05T11:40:57.173Z,996.78
2016-09-05T11:42:09.446Z,996.82
2016-09-05T11:43:21.023Z,996.77
2016-09-05T11:44:33.279Z,996.8
2016-09-05T11:45:45.563Z,996.84
2016-09-05T11:46:57.129Z,996.89
2016-09-05T11:48:09.397Z,996.86
2016-09-05T11:49:20.995Z,996.93
2016-09-05T11:50:32.623Z,996.88
2016-09-05T11:51:44.198Z,996.9
2016-09-05T11:52:56.470Z,996.92
2016-09-05T11:54:08.747Z,996.89
2016-09-05T11:55:21.001Z,996.8
2016-09-05T11:56:33.272Z,996.79
2016-09-05T11:57:44.822Z,996.82
2016-09-05T11:58:54.990Z,996.81
2016-09-05T12:01:17.050Z,996.83
2016-09-05T12:02:29.316Z,996.89
2016-09-05T12:03:41.585Z,996.83
2016-09-05T12:04:53.839Z,996.79
2016-09-05T12:06:04.702Z,996.78
2016-09-05T12:07:16.263Z,996.8
2016-09-05T12:08:28.545Z,996.79
2016-09-05T12:09:40.106Z,996.8
2016-09-05T12:10:51.811Z,996.71
2016-09-05T12:12:02.670Z,996.78
2016-09-05T12:13:14.947Z,996.78
2016-09-05T12:14:26.537Z,996.73
2016-09-05T12:15:38.109Z,996.78
2016-09-05T12:16:50.369Z,996.8
2016-09-05T12:18:02.691Z,996.85
2016-09-05T12:19:14.965Z,996.88
2016-09-05T12:20:26.530Z,996.9
2016-09-05T12:21:38.809Z,996.86
2016-09-05T12:22:51.084Z,996.84
2016-09-05T12:24:03.373Z,996.9
2016-09-05T12:25:15.658Z,996.93
2016-09-05T12:26:27.926Z,996.87
2016-09-05T12:27:38.819Z,996.82
2016-09-05T12:28:50.386Z,996.9
2016-09-05T12:30:02.665Z,996.9
2016-09-05T12:31:14.933Z,996.93
2016-09-05T12:32:26.504Z,996.96
2016-09-05T12:33:38.784Z,996.97
2016-09-05T12:34:49.108Z,996.94
2016-09-05T12:35:59.429Z,997.02
2016-09-05T12:37:09.423Z,996.96
2016-09-05T12:38:19.093Z,996.94
2016-09-05T12:39:29.395Z,996.92
2016-09-05T12:40:39.378Z,996.85
2016-09-05T12:41:49.680Z,996.85
2016-09-05T12:43:00.005Z,996.82
2016-09-05T12:44:10.305Z,996.79
2016-09-05T12:45:20.594Z,996.78
2016-09-05T12:46:30.887Z,996.74
2016-09-05T12:47:41.183Z,996.67
2016-09-05T12:48:51.478Z,996.61
2016-09-05T12:50:01.522Z,996.58
2016-09-05T12:51:11.819Z,996.58
2016-09-05T12:52:21.816Z,996.56
2016-09-05T12:53:32.098Z,996.58
2016-09-05T12:54:42.107Z,996.79
2016-09-05T12:55:52.399Z,996.85
2016-09-05T12:57:02.694Z,996.85
2016-09-05T12:58:12.683Z,996.83
2016-09-05T12:59:22.660Z,996.81
2016-09-05T13:00:32.969Z,996.87
2016-09-05T13:01:42.952Z,996.84
2016-09-05T13:02:53.230Z,996.79
2016-09-05T13:04:03.532Z,996.73
2016-09-05T13:05:13.863Z,996.83
2016-09-05T13:06:24.145Z,996.79
2016-09-05T13:07:34.123Z,996.82
2016-09-05T13:08:44.409Z,996.84
2016-09-05T13:09:54.697Z,996.8
2016-09-05T13:11:05.012Z,996.78
2016-09-05T13:12:15.318Z,996.8
2016-09-05T13:13:25.622Z,996.87
2016-09-05T13:14:35.933Z,996.92
2016-09-05T13:15:46.222Z,996.86
2016-09-05T13:16:56.518Z,996.87
2016-09-05T13:18:06.836Z,996.86
2016-09-05T13:19:16.523Z,996.81
2016-09-05T13:20:26.844Z,996.83
2016-09-05T13:21:36.842Z,996.8
2016-09-05T13:22:47.136Z,996.77
2016-09-05T13:23:57.121Z,996.8
2016-09-05T13:25:07.423Z,996.82
2016-09-05T13:26:17.409Z,996.81
2016-09-05T13:27:27.392Z,996.8
2016-09-05T13:28:37.714Z,996.82
2016-09-05T13:29:48.040Z,996.8
2016-09-05T13:30:58.328Z,996.78
2016-09-05T13:32:08.650Z,996.84
2016-09-05T13:33:18.965Z,996.85
2016-09-05T13:34:29.267Z,996.9
2016-09-05T13:35:39.578Z,996.86
2016-09-05T13:36:49.874Z,996.84
2016-09-05T13:38:00.158Z,996.87
2016-09-05T13:39:10.164Z,996.86
2016-09-05T13:40:20.471Z,996.87
2016-09-05T13:41:30.451Z,996.81
2016-09-05T13:42:40.754Z,996.79
2016-09-05T13:43:51.046Z,996.77
2016-09-05T13:45:01.021Z,996.77
2016-09-05T13:46:11.000Z,996.83
2016-09-05T13:47:21.296Z,996.78
2016-09-05T13:48:31.288Z,996.74
2016-09-05T13:49:41.605Z,996.74
2016-09-05T13:50:51.831Z,996.69
2016-09-05T13:52:01.822Z,996.66
2016-09-05T13:53:12.135Z,996.71
2016-09-05T13:54:22.447Z,996.68
2016-09-05T13:55:32.444Z,996.65
2016-09-05T13:56:42.427Z,996.69
2016-09-05T13:57:52.412Z,996.65
2016-09-05T13:59:02.721Z,996.61
2016-09-05T14:00:13.017Z,996.61
2016-09-05T14:01:23.313Z,996.65
2016-09-05T14:02:33.321Z,996.66
2016-09-05T14:03:43.612Z,996.64
2016-09-05T14:04:53.293Z,996.59
2016-09-05T14:06:03.303Z,996.65
2016-09-05T14:07:13.601Z,996.61
2016-09-05T14:08:23.898Z,996.6
2016-09-05T14:09:33.899Z,996.54
2016-09-05T14:10:44.120Z,996.56
2016-09-05T14:11:54.416Z,996.52
2016-09-05T14:13:04.404Z,996.53
2016-09-05T14:14:14.406Z,996.57
2016-09-05T14:15:24.713Z,996.59
2016-09-05T14:16:35.010Z,996.57
2016-09-05T14:17:45.311Z,996.64
2016-09-05T14:18:55.302Z,996.6
2016-09-05T14:20:05.619Z,996.62
2016-09-05T14:21:15.623Z,996.66
2016-09-05T14:22:25.917Z,996.63
2016-09-05T14:23:36.215Z,996.57
2016-09-05T14:24:46.250Z,996.56
2016-09-05T14:25:56.550Z,996.61
2016-09-05T14:27:06.854Z,996.63
2016-09-05T14:28:16.861Z,996.64
2016-09-05T14:29:27.158Z,996.72
2016-09-05T14:30:37.126Z,996.74
2016-09-05T14:31:47.440Z,996.83
2016-09-05T14:32:57.452Z,996.78
2016-09-05T14:34:07.750Z,996.83
2016-09-05T14:35:18.058Z,996.73
2016-09-05T14:36:28.362Z,996.82
2016-09-05T14:37:38.351Z,996.79
2016-09-05T14:38:48.647Z,996.81
2016-09-05T14:39:59.173Z,996.87
2016-09-05T14:41:09.204Z,996.89
2016-09-05T14:42:19.518Z,996.78
2016-09-05T14:43:29.850Z,996.7
2016-09-05T14:44:40.164Z,996.75
2016-09-05T14:45:50.163Z,996.77
2016-09-05T14:47:00.160Z,996.76
2016-09-05T14:48:10.488Z,996.73
2016-09-05T14:49:20.797Z,996.59
2016-09-05T14:50:31.107Z,996.69
2016-09-05T14:51:41.440Z,996.64
2016-09-05T14:52:51.438Z,996.84
2016-09-05T14:54:01.725Z,997.04
2016-09-05T14:55:11.393Z,996.93
2016-09-05T14:56:21.688Z,997
2016-09-05T14:57:31.976Z,996.97
2016-09-05T14:58:41.973Z,997
2016-09-05T14:59:52.262Z,996.97
2016-09-05T15:01:02.253Z,997.02
2016-09-05T15:02:12.573Z,997.05
2016-09-05T15:03:22.579Z,997.04
2016-09-05T15:04:32.882Z,997.02
2016-09-05T15:05:42.887Z,997.01
2016-09-05T15:06:53.201Z,997
2016-09-05T15:08:03.496Z,997.01
2016-09-05T15:09:13.488Z,997.03
2016-09-05T15:10:23.780Z,996.97
2016-09-05T15:11:33.772Z,997
2016-09-05T15:12:43.764Z,997.06
2016-09-05T15:13:54.055Z,997.01
2016-09-05T15:15:04.364Z,997.07
2016-09-05T15:16:14.654Z,997.08
2016-09-05T15:17:24.936Z,997.06
2016-09-05T15:18:35.219Z,997.08
2016-09-05T15:19:45.537Z,997.09
2016-09-05T15:20:55.522Z,997.1
2016-09-05T15:22:05.819Z,997.13
2016-09-05T15:23:16.135Z,997.13
2016-09-05T15:24:26.123Z,997.13
2016-09-05T15:25:36.121Z,997.16
2016-09-05T15:26:46.414Z,997.23
2016-09-05T15:27:56.741Z,997.21